createdAt,value
2019-03-06T00:01:18.142Z,2.02
2019-03-06T00:04:23.289Z,2.02
2019-03-06T00:07:28.591Z,1.90
2019-03-06T00:10:36.476Z,1.97
2019-03-06T00:13:41.726Z,1.96
2019-03-06T00:16:46.866Z,1.86
2019-03-06T00:19:52.152Z,1.88
2019-03-06T00:22:57.309Z,2.09
2019-03-06T00:26:02.544Z,2.03
2019-03-06T00:29:07.882Z,2.02
2019-03-06T00:32:13.302Z,1.98
2019-03-06T00:35:22.410Z,2.03
2019-03-06T00:38:27.517Z,2.09
2019-03-06T00:41:41.113Z,2.09
2019-03-06T00:44:47.315Z,2.11
2019-03-06T00:47:52.584Z,2.26
2019-03-06T00:50:57.710Z,2.15
2019-03-06T00:54:02.979Z,2.29
2019-03-06T00:57:08.128Z,2.06
2019-03-06T01:00:14.523Z,2.05
2019-03-06T01:03:20.213Z,2.14
2019-03-06T01:06:26.654Z,2.21
2019-03-06T01:09:31.871Z,2.29
2019-03-06T01:12:37.022Z,2.13
2019-03-06T01:15:42.142Z,2.08
2019-03-06T01:18:47.363Z,2.22
2019-03-06T01:21:52.537Z,2.15
2019-03-06T01:24:57.708Z,2.10
2019-03-06T01:28:03.832Z,2.12
2019-03-06T01:31:09.052Z,2.13
2019-03-06T01:34:33.269Z,2.08
2019-03-06T01:37:50.253Z,2.09
2019-03-06T01:41:01.472Z,2.15
2019-03-06T01:44:14.189Z,2.17
2019-03-06T01:47:19.379Z,2.17
2019-03-06T01:50:24.518Z,2.30
2019-03-06T01:53:29.629Z,2.29
2019-03-06T01:56:34.849Z,2.27
2019-03-06T01:59:39.937Z,2.05
2019-03-06T02:02:45.107Z,2.10
2019-03-06T02:05:50.241Z,2.10
2019-03-06T02:08:55.380Z,2.12
2019-03-06T02:12:00.652Z,2.20
2019-03-06T02:15:06.462Z,2.10
2019-03-06T02:18:11.884Z,2.26
2019-03-06T02:21:17.029Z,2.37
2019-03-06T02:24:22.338Z,2.26
2019-03-06T02:27:27.469Z,2.21
2019-03-06T02:30:32.710Z,2.19
2019-03-06T02:33:37.855Z,2.32
2019-03-06T02:36:43.075Z,2.25
2019-03-06T02:39:48.209Z,2.31
2019-03-06T02:42:53.291Z,2.28
2019-03-06T02:45:58.427Z,2.27
2019-03-06T02:49:03.652Z,2.38
2019-03-06T02:52:09.023Z,2.40
2019-03-06T02:55:15.141Z,2.41
2019-03-06T02:58:23.883Z,2.51
2019-03-06T03:01:53.867Z,2.55
2019-03-06T03:05:11.086Z,2.51
2019-03-06T03:08:16.206Z,2.48
2019-03-06T03:11:21.679Z,2.62
2019-03-06T03:14:26.917Z,2.62
2019-03-06T03:17:32.079Z,2.54
2019-03-06T03:20:37.162Z,2.47
2019-03-06T03:23:43.920Z,2.56
2019-03-06T03:26:49.107Z,2.57
2019-03-06T03:29:54.268Z,2.50
2019-03-06T03:32:59.467Z,2.51
2019-03-06T03:36:04.588Z,2.81
2019-03-06T03:39:09.957Z,2.59
2019-03-06T03:42:15.170Z,2.51
2019-03-06T03:45:20.448Z,2.69
2019-03-06T03:48:25.588Z,2.78
2019-03-06T03:51:30.699Z,2.73
2019-03-06T03:54:36.889Z,2.74
2019-03-06T03:57:41.979Z,2.73
2019-03-06T04:00:47.129Z,2.61
2019-03-06T04:03:52.441Z,2.68
2019-03-06T04:06:57.714Z,2.75
2019-03-06T04:10:02.831Z,2.77
2019-03-06T04:13:08.006Z,2.76
2019-03-06T04:16:13.169Z,2.79
2019-03-06T04:19:18.291Z,2.78
2019-03-06T04:22:23.403Z,2.77
2019-03-06T04:25:28.562Z,2.95
2019-03-06T04:28:33.661Z,2.90
2019-03-06T04:31:38.877Z,2.87
2019-03-06T04:34:43.975Z,2.75
2019-03-06T04:37:49.134Z,2.75
2019-03-06T04:40:54.431Z,2.77
2019-03-06T04:43:59.566Z,2.84
2019-03-06T04:47:04.749Z,2.76
2019-03-06T04:50:10.178Z,2.66
2019-03-06T04:53:16.405Z,2.73
2019-03-06T04:56:22.689Z,2.73
2019-03-06T04:59:27.831Z,2.77
2019-03-06T05:02:33.013Z,2.80
2019-03-06T05:05:39.257Z,2.79
2019-03-06T05:08:44.470Z,2.75
2019-03-06T05:11:49.681Z,2.91
2019-03-06T05:14:54.784Z,2.79
2019-03-06T05:18:09.217Z,2.84
2019-03-06T05:21:14.418Z,2.81
2019-03-06T05:24:19.598Z,2.83
2019-03-06T05:27:24.736Z,2.77
2019-03-06T05:30:30.105Z,2.69
2019-03-06T05:33:35.342Z,2.69
2019-03-06T05:37:22.372Z,2.74
2019-03-06T05:40:27.593Z,2.88
2019-03-06T05:43:32.734Z,2.81
2019-03-06T05:46:37.946Z,2.89
2019-03-06T05:49:43.067Z,2.84
2019-03-06T05:52:48.188Z,2.83
2019-03-06T05:55:53.322Z,2.82
2019-03-06T05:58:58.471Z,2.84
2019-03-06T06:02:03.568Z,2.98
2019-03-06T06:05:10.767Z,2.96
2019-03-06T06:08:15.969Z,3.04
2019-03-06T06:11:21.130Z,3.01
2019-03-06T06:14:26.247Z,2.94
2019-03-06T06:17:31.347Z,3.02
2019-03-06T06:20:36.506Z,3.06
2019-03-06T06:24:02.935Z,3.05
2019-03-06T06:27:08.126Z,3.22
2019-03-06T06:30:13.807Z,3.13
2019-03-06T06:33:19.129Z,3.19
2019-03-06T06:36:24.233Z,3.17
2019-03-06T06:39:29.440Z,3.42
2019-03-06T06:42:34.629Z,3.44
2019-03-06T06:45:39.743Z,3.60
2019-03-06T06:48:44.881Z,3.70
2019-03-06T06:52:21.119Z,3.83
2019-03-06T06:55:53.447Z,3.93
2019-03-06T06:59:40.825Z,4.06
2019-03-06T07:03:40.622Z,4.19
2019-03-06T07:07:07.600Z,4.24
2019-03-06T07:10:46.857Z,4.12
2019-03-06T07:14:17.708Z,4.08
2019-03-06T07:17:40.011Z,4.02
2019-03-06T07:21:03.280Z,4.03
2019-03-06T07:24:20.194Z,4.12
2019-03-06T07:27:33.589Z,4.17
2019-03-06T07:30:47.800Z,4.34
2019-03-06T07:34:14.315Z,4.33
2019-03-06T07:37:31.646Z,4.39
2019-03-06T07:40:55.769Z,4.75
2019-03-06T07:44:07.272Z,4.93
2019-03-06T07:47:36.503Z,4.81
2019-03-06T07:51:02.888Z,5.24
2019-03-06T07:54:21.025Z,5.48
2019-03-06T07:57:46.092Z,5.22
2019-03-06T08:00:52.281Z,5.54
2019-03-06T08:04:09.935Z,5.79
2019-03-06T08:07:16.193Z,5.56
2019-03-06T08:10:23.764Z,5.79
2019-03-06T08:13:33.687Z,5.78
2019-03-06T08:17:00.662Z,5.96
2019-03-06T08:20:20.591Z,6.11
2019-03-06T08:23:43.578Z,6.60
2019-03-06T08:26:48.724Z,6.46
2019-03-06T08:29:53.942Z,6.99
2019-03-06T08:32:59.147Z,6.91
2019-03-06T08:36:04.302Z,7.11
2019-03-06T08:39:20.741Z,6.73
2019-03-06T08:42:25.979Z,6.53
2019-03-06T08:45:38.087Z,6.59
2019-03-06T08:48:51.759Z,6.44
2019-03-06T08:52:15.842Z,6.60
2019-03-06T08:55:27.247Z,7.06
2019-03-06T08:58:54.483Z,7.36
2019-03-06T09:02:28.009Z,7.71
2019-03-06T09:05:46.855Z,8.01
2019-03-06T09:09:13.808Z,8.11
2019-03-06T09:12:40.816Z,8.96
2019-03-06T09:16:08.364Z,8.81
2019-03-06T09:19:38.411Z,9.20
2019-03-06T09:23:05.297Z,9.39
2019-03-06T09:26:38.446Z,8.61
2019-03-06T09:30:01.188Z,9.30
2019-03-06T09:33:13.987Z,9.67
2019-03-06T09:36:46.896Z,9.43
2019-03-06T09:40:09.685Z,10.01
2019-03-06T09:43:25.770Z,10.28
2019-03-06T09:46:53.071Z,9.90
2019-03-06T09:50:23.034Z,9.10
2019-03-06T09:53:49.966Z,9.92
2019-03-06T09:57:14.157Z,9.20
2019-03-06T10:00:29.743Z,9.93
2019-03-06T10:03:48.175Z,10.61
2019-03-06T10:07:21.489Z,10.52
2019-03-06T10:10:47.605Z,10.18
2019-03-06T10:14:00.112Z,10.82
2019-03-06T10:17:15.440Z,10.83
2019-03-06T10:20:25.326Z,10.98
2019-03-06T10:23:29.088Z,11.08
2019-03-06T10:26:34.290Z,11.67
2019-03-06T10:29:39.410Z,12.18
2019-03-06T10:32:44.662Z,11.49
2019-03-06T10:35:49.766Z,11.68
2019-03-06T10:38:54.953Z,11.95
2019-03-06T10:42:00.482Z,11.97
2019-03-06T10:45:06.720Z,11.92
2019-03-06T10:48:11.883Z,12.15
2019-03-06T10:51:17.029Z,12.52
2019-03-06T10:54:22.138Z,12.18
2019-03-06T10:57:27.312Z,11.86
2019-03-06T11:00:36.274Z,12.03
2019-03-06T11:03:46.198Z,12.42
2019-03-06T11:06:51.581Z,12.75
2019-03-06T11:09:56.807Z,12.83
2019-03-06T11:13:04.359Z,13.17
2019-03-06T11:16:10.737Z,13.21
2019-03-06T11:19:16.089Z,13.72
2019-03-06T11:22:21.246Z,13.77
2019-03-06T11:25:27.381Z,13.92
2019-03-06T11:28:32.895Z,13.38
2019-03-06T11:31:38.069Z,13.72
2019-03-06T11:34:43.208Z,14.21
2019-03-06T11:37:48.399Z,14.29
2019-03-06T11:40:53.916Z,14.90
2019-03-06T11:43:59.027Z,14.94
2019-03-06T11:47:04.283Z,14.86
2019-03-06T11:50:10.877Z,14.95
2019-03-06T11:53:16.193Z,15.27
2019-03-06T11:56:21.417Z,15.09
2019-03-06T11:59:26.855Z,14.56
2019-03-06T12:02:32.012Z,14.37
2019-03-06T12:05:37.893Z,14.49
2019-03-06T12:08:45.878Z,14.81
2019-03-06T12:11:50.164Z,15.02
2019-03-06T12:14:55.327Z,15.34
2019-03-06T12:18:00.579Z,15.35
2019-03-06T12:21:05.975Z,14.92
2019-03-06T12:24:13.107Z,15.18
2019-03-06T12:27:18.277Z,15.54
2019-03-06T12:30:23.467Z,15.38
2019-03-06T12:33:29.354Z,14.93
2019-03-06T12:36:36.133Z,14.58
2019-03-06T12:39:41.486Z,14.64
2019-03-06T12:42:46.556Z,14.75
2019-03-06T12:46:29.549Z,14.79
2019-03-06T12:49:34.706Z,15.14
2019-03-06T12:52:39.867Z,15.51
2019-03-06T12:55:45.065Z,15.50
2019-03-06T12:58:50.214Z,15.72
2019-03-06T13:01:55.507Z,15.61
2019-03-06T13:05:00.636Z,15.34
2019-03-06T13:08:06.014Z,15.16
2019-03-06T13:11:11.823Z,15.09
2019-03-06T13:14:16.912Z,15.38
2019-03-06T13:17:25.997Z,15.38
2019-03-06T13:20:31.257Z,15.32
2019-03-06T13:23:36.657Z,15.24
2019-03-06T13:26:41.821Z,15.32
2019-03-06T13:29:47.018Z,15.45
2019-03-06T13:33:07.002Z,15.81
2019-03-06T13:36:12.465Z,16.14
2019-03-06T13:39:17.737Z,16.35
2019-03-06T13:42:23.023Z,15.89
2019-03-06T13:45:28.210Z,16.17
2019-03-06T13:48:34.423Z,16.21
2019-03-06T13:51:39.841Z,15.98
2019-03-06T13:54:45.078Z,16.01
2019-03-06T13:57:50.309Z,15.89
2019-03-06T14:00:55.672Z,15.82
2019-03-06T14:04:00.977Z,15.98
2019-03-06T14:07:06.086Z,15.93
2019-03-06T14:10:11.833Z,16.03
2019-03-06T14:13:17.120Z,15.83
2019-03-06T14:16:22.269Z,16.22
2019-03-06T14:19:27.637Z,16.23
2019-03-06T14:22:32.993Z,16.24
2019-03-06T14:25:38.192Z,16.35
2019-03-06T14:28:43.611Z,16.47
2019-03-06T14:31:48.891Z,16.05
2019-03-06T14:34:54.054Z,16.18
2019-03-06T14:37:59.264Z,16.19
2019-03-06T14:41:04.531Z,16.01
2019-03-06T14:44:09.742Z,15.91
2019-03-06T14:47:16.488Z,15.89
2019-03-06T14:50:21.704Z,15.84
2019-03-06T14:53:26.851Z,15.93
2019-03-06T14:56:32.009Z,15.72
2019-03-06T14:59:37.109Z,15.74
2019-03-06T15:02:43.268Z,15.78
2019-03-06T15:05:48.453Z,16.05
2019-03-06T15:08:53.636Z,15.84
2019-03-06T15:11:58.913Z,15.90
2019-03-06T15:15:04.388Z,15.83
2019-03-06T15:18:10.842Z,15.79
2019-03-06T15:21:16.293Z,15.47
2019-03-06T15:24:21.609Z,15.25
2019-03-06T15:27:27.693Z,15.12
2019-03-06T15:30:32.841Z,14.97
2019-03-06T15:33:38.296Z,14.83
2019-03-06T15:36:43.483Z,14.82
2019-03-06T15:39:48.976Z,14.68
2019-03-06T15:42:54.336Z,14.68
2019-03-06T15:45:59.542Z,14.64
2019-03-06T15:49:04.717Z,14.56
2019-03-06T15:52:10.937Z,14.47
2019-03-06T15:55:16.136Z,14.35
2019-03-06T15:58:21.251Z,14.16
2019-03-06T16:01:26.513Z,14.14
2019-03-06T16:04:31.866Z,14.01
2019-03-06T16:07:37.036Z,13.85
2019-03-06T16:10:42.597Z,13.73
2019-03-06T16:13:47.704Z,13.73
2019-03-06T16:16:52.999Z,13.49
2019-03-06T16:19:58.177Z,13.37
2019-03-06T16:23:03.356Z,13.22
2019-03-06T16:26:08.594Z,13.10
2019-03-06T16:29:13.732Z,12.86
2019-03-06T16:32:19.283Z,12.69
2019-03-06T16:35:24.800Z,12.59
2019-03-06T16:38:29.936Z,12.59
2019-03-06T16:41:35.023Z,12.43
2019-03-06T16:44:40.275Z,12.38
2019-03-06T16:47:45.375Z,12.14
2019-03-06T16:50:50.807Z,12.12
2019-03-06T16:53:56.973Z,11.87
2019-03-06T16:57:02.146Z,11.70
2019-03-06T17:00:27.132Z,11.54
2019-03-06T17:03:32.912Z,11.49
2019-03-06T17:06:38.066Z,11.50
2019-03-06T17:09:43.385Z,11.23
2019-03-06T17:12:49.149Z,11.21
2019-03-06T17:15:54.291Z,11.10
2019-03-06T17:18:59.479Z,11.05
2019-03-06T17:22:04.725Z,10.99
2019-03-06T17:25:10.628Z,10.91
2019-03-06T17:28:15.806Z,10.84
2019-03-06T17:31:21.095Z,10.84
2019-03-06T17:34:26.253Z,10.85
2019-03-06T17:37:31.476Z,10.76
2019-03-06T17:40:37.061Z,10.77
2019-03-06T17:43:42.373Z,10.72
2019-03-06T17:46:47.468Z,10.68
2019-03-06T17:49:52.624Z,10.85
2019-03-06T17:52:58.124Z,10.74
2019-03-06T17:56:03.255Z,10.60
2019-03-06T17:59:08.452Z,10.54
2019-03-06T18:02:13.620Z,10.61
2019-03-06T18:05:19.164Z,10.38
2019-03-06T18:08:24.445Z,10.29
2019-03-06T18:11:29.955Z,10.27
2019-03-06T18:14:35.056Z,10.20
2019-03-06T18:17:40.570Z,10.46
2019-03-06T18:20:45.806Z,10.39
2019-03-06T18:23:52.057Z,10.32
2019-03-06T18:26:57.283Z,10.32
2019-03-06T18:30:02.550Z,10.25
2019-03-06T18:33:09.452Z,10.32
2019-03-06T18:36:14.575Z,10.35
2019-03-06T18:39:20.511Z,10.29
2019-03-06T18:42:25.996Z,10.32
2019-03-06T18:45:31.155Z,10.25
2019-03-06T18:48:36.307Z,10.22
2019-03-06T18:51:41.629Z,10.18
2019-03-06T18:54:46.792Z,10.13
2019-03-06T18:57:51.948Z,10.07
2019-03-06T19:00:58.243Z,10.09
2019-03-06T19:04:03.515Z,10.17
2019-03-06T19:07:08.744Z,10.13
2019-03-06T19:10:15.747Z,10.05
2019-03-06T19:13:21.014Z,9.98
2019-03-06T19:16:26.162Z,9.94
2019-03-06T19:19:31.367Z,9.89
2019-03-06T19:22:36.538Z,10.14
2019-03-06T19:25:41.771Z,10.05
2019-03-06T19:28:46.981Z,10.10
2019-03-06T19:31:52.460Z,10.08
2019-03-06T19:34:57.665Z,10.05
2019-03-06T19:38:02.938Z,10.00
2019-03-06T19:41:08.146Z,9.93
2019-03-06T19:44:13.332Z,9.87
2019-03-06T19:47:18.474Z,9.83
2019-03-06T19:50:25.478Z,9.77
2019-03-06T19:53:30.595Z,9.70
2019-03-06T19:56:35.805Z,9.61
2019-03-06T19:59:41.059Z,9.59
2019-03-06T20:02:46.169Z,9.56
2019-03-06T20:05:51.348Z,9.53
2019-03-06T20:08:56.619Z,9.60
2019-03-06T20:12:01.901Z,9.60
2019-03-06T20:15:07.435Z,9.56
2019-03-06T20:18:12.782Z,9.59
2019-03-06T20:21:20.137Z,9.59
2019-03-06T20:24:25.144Z,9.71
2019-03-06T20:27:30.342Z,9.88
2019-03-06T20:30:35.680Z,9.68
2019-03-06T20:33:40.920Z,9.56
2019-03-06T20:36:46.041Z,9.44
2019-03-06T20:39:51.264Z,9.41
2019-03-06T20:42:56.515Z,9.41
2019-03-06T20:46:01.688Z,9.32
2019-03-06T20:49:07.931Z,9.31
2019-03-06T20:52:14.252Z,9.39
2019-03-06T20:55:19.390Z,9.41
2019-03-06T20:58:24.651Z,9.48
2019-03-06T21:01:29.847Z,9.35
2019-03-06T21:04:36.117Z,9.32
2019-03-06T21:07:45.278Z,9.22
2019-03-06T21:10:49.266Z,9.19
2019-03-06T21:13:54.473Z,9.15
2019-03-06T21:16:59.745Z,9.11
2019-03-06T21:20:07.570Z,9.07
2019-03-06T21:23:12.823Z,9.04
2019-03-06T21:26:18.868Z,9.16
2019-03-06T21:29:24.066Z,9.14
2019-03-06T21:32:29.255Z,9.33
2019-03-06T21:35:34.423Z,9.20
2019-03-06T21:38:41.688Z,9.14
2019-03-06T21:41:46.479Z,9.12
2019-03-06T21:44:51.629Z,9.07
2019-03-06T21:47:57.702Z,9.11
2019-03-06T21:51:05.269Z,9.15
2019-03-06T21:54:10.045Z,9.04
2019-03-06T21:57:15.466Z,9.01
2019-03-06T22:00:20.967Z,9.10
2019-03-06T22:03:26.223Z,9.00
2019-03-06T22:06:31.472Z,8.97
2019-03-06T22:09:36.704Z,8.98
2019-03-06T22:12:41.950Z,9.11
2019-03-06T22:15:47.227Z,8.95
2019-03-06T22:18:52.414Z,8.92
2019-03-06T22:21:57.554Z,9.09
2019-03-06T22:25:02.707Z,9.13
2019-03-06T22:28:10.480Z,9.10
2019-03-06T22:31:15.630Z,9.13
2019-03-06T22:34:20.893Z,9.00
2019-03-06T22:37:26.170Z,8.96
2019-03-06T22:40:31.327Z,8.84
2019-03-06T22:43:36.524Z,9.08
2019-03-06T22:46:41.678Z,8.97
2019-03-06T22:49:46.800Z,9.31
2019-03-06T22:52:51.949Z,8.97
2019-03-06T22:55:57.071Z,8.84
2019-03-06T22:59:02.227Z,8.77
2019-03-06T23:02:07.495Z,8.73
2019-03-06T23:05:12.692Z,8.65
2019-03-06T23:08:18.110Z,8.62
2019-03-06T23:11:24.086Z,8.65
2019-03-06T23:14:29.267Z,8.72
2019-03-06T23:17:34.379Z,8.77
2019-03-06T23:20:39.513Z,8.75
2019-03-06T23:23:44.755Z,8.85
2019-03-06T23:26:49.869Z,8.68
2019-03-06T23:29:55.069Z,8.62
2019-03-06T23:33:01.417Z,8.59
2019-03-06T23:36:08.553Z,8.69
2019-03-06T23:39:13.784Z,8.84
2019-03-06T23:42:18.943Z,8.70
2019-03-06T23:45:24.086Z,8.54
2019-03-06T23:48:29.209Z,8.45
2019-03-06T23:51:42.578Z,8.51
2019-03-06T23:54:47.726Z,8.40
2019-03-06T23:57:52.857Z,8.34
